Time;durP1;ratioP1;P1;durP2;ratioP2;P2;SDS_P1;SDS_P2;PMS_P1;PMS_P2;Temp;Humidity;BMP_temperature;BMP_pressure;BME280_temperature;BME280_humidity;BME280_pressure;Samples;Min_cycle;Max_cycle;Signal;HPM_P1;HPM_P2
2021/01/07 00:01:33;;;;;;;32.05;15.13;;;;;;;-1.12;82.93;95936.25;5052712;28;20574;-71
2021/01/07 00:03:59;;;;;;;35.88;15.70;;;;;;;-1.21;83.30;95935.09;5052496;28;20056;-71
2021/01/07 00:06:25;;;;;;;31.67;14.18;;;;;;;-1.07;83.36;95934.41;5051835;28;20132;-71
2021/01/07 00:08:52;;;;;;;35.97;14.82;;;;;;;-0.92;82.89;95933.75;5051998;28;20234;-71
2021/01/07 00:11:18;;;;;;;31.98;13.55;;;;;;;-0.95;82.74;95941.44;5052862;28;20045;-71
2021/01/07 00:13:44;;;;;;;33.45;15.18;;;;;;;-1.01;82.94;95934.47;5052465;28;20115;-71
2021/01/07 00:16:10;;;;;;;30.73;13.98;;;;;;;-0.99;83.15;95943.84;5052725;28;20048;-72
2021/01/07 00:18:37;;;;;;;35.03;15.35;;;;;;;-0.87;82.78;95944.47;5051745;28;20569;-71
2021/01/07 00:21:04;;;;;;;33.60;15.45;;;;;;;-0.95;82.91;95954.81;5051738;28;20102;-72
2021/01/07 00:23:30;;;;;;;32.28;14.82;;;;;;;-0.90;83.10;95953.00;5052002;28;20045;-71
2021/01/07 00:25:56;;;;;;;30.88;14.30;;;;;;;-0.88;83.13;95950.88;5052037;28;20051;-71
2021/01/07 00:28:24;;;;;;;33.08;15.25;;;;;;;-1.01;83.46;95947.81;5052043;28;20049;-71
2021/01/07 00:30:50;;;;;;;32.08;15.20;;;;;;;-1.01;83.60;95951.28;5051845;28;20132;-71
2021/01/07 00:33:17;;;;;;;34.10;15.25;;;;;;;-0.95;83.67;95955.63;5052375;28;20049;-71
2021/01/07 00:35:45;;;;;;;32.08;15.00;;;;;;;-0.84;83.51;95951.16;5051469;28;20496;-71
2021/01/07 00:38:11;;;;;;;31.60;14.80;;;;;;;-0.93;83.44;95956.19;5052218;28;20045;-71
2021/01/07 00:40:37;;;;;;;39.28;15.98;;;;;;;-1.11;84.09;95951.22;5051369;28;20052;-72
2021/01/07 00:43:04;;;;;;;36.45;14.88;;;;;;;-0.96;84.09;95948.66;5051994;28;20053;-72
2021/01/07 00:45:30;;;;;;;35.75;15.43;;;;;;;-0.87;83.75;95957.84;5070831;28;20063;-71
2021/01/07 00:47:56;;;;;;;30.02;13.63;;;;;;;-0.82;83.61;95952.53;5071891;28;20052;-72
2021/01/07 00:50:23;;;;;;;36.45;15.52;;;;;;;-0.83;83.45;95953.59;5071342;28;20389;-71
2021/01/07 00:52:49;;;;;;;32.22;14.70;;;;;;;-0.80;83.28;95945.06;5071977;28;20649;-71
2021/01/07 00:55:17;;;;;;;30.83;15.50;;;;;;;-0.77;83.19;95946.41;5071767;28;20515;-71
2021/01/07 00:57:43;;;;;;;31.23;14.43;;;;;;;-0.85;83.47;95955.69;5071164;28;20048;-71
2021/01/07 01:00:12;;;;;;;30.63;14.48;;;;;;;-0.75;83.51;95954.19;5071846;28;20664;-72
2021/01/07 01:02:38;;;;;;;31.27;13.82;;;;;;;-0.70;83.44;95962.25;5070819;28;20110;-71
2021/01/07 01:05:05;;;;;;;31.20;14.27;;;;;;;-0.79;83.78;95962.69;5071665;28;20051;-73
2021/01/07 01:07:31;;;;;;;34.90;15.63;;;;;;;-0.81;83.81;95966.69;5070819;28;20110;-71
2021/01/07 01:09:58;;;;;;;32.33;14.85;;;;;;;-0.79;84.08;95964.56;5071671;28;20040;-71
2021/01/07 01:12:24;;;;;;;33.47;15.52;;;;;;;-0.76;84.10;95974.75;5070746;28;20053;-71
2021/01/07 01:14:50;;;;;;;36.17;15.05;;;;;;;-0.86;84.45;95970.13;5057779;28;20114;-71
2021/01/07 01:17:17;;;;;;;36.25;16.98;;;;;;;-0.84;84.67;95973.34;5050184;28;20056;-71
2021/01/07 01:19:43;;;;;;;34.92;16.33;;;;;;;-0.87;84.85;95973.88;5050856;28;20045;-71
2021/01/07 01:22:10;;;;;;;35.90;15.90;;;;;;;-0.83;84.93;95969.63;5051134;28;20045;-71
2021/01/07 01:24:36;;;;;;;36.30;15.40;;;;;;;-0.83;85.02;95974.97;5050294;28;20416;-71
2021/01/07 01:27:03;;;;;;;34.35;15.57;;;;;;;-0.74;84.74;95974.50;5051460;28;20098;-72
2021/01/07 01:29:30;;;;;;;35.80;15.90;;;;;;;-0.73;84.69;95979.63;5050371;28;20049;-71
2021/01/07 01:31:56;;;;;;;36.40;16.67;;;;;;;-0.82;85.05;95971.25;5051193;28;20436;-72
2021/01/07 01:34:23;;;;;;;35.35;15.30;;;;;;;-0.77;85.03;95973.16;5050224;28;20065;-71
2021/01/07 01:36:49;;;;;;;32.28;15.65;;;;;;;-0.68;84.86;95976.16;5050903;28;20517;-71
2021/01/07 01:39:16;;;;;;;32.42;15.52;;;;;;;-0.65;84.69;95976.44;5050336;28;20048;-71
2021/01/07 01:41:42;;;;;;;34.05;15.93;;;;;;;-0.67;84.69;95977.78;5050773;28;20049;-71
2021/01/07 01:44:09;;;;;;;36.25;16.10;;;;;;;-0.70;84.91;95983.63;5051292;28;20053;-72
2021/01/07 01:46:36;;;;;;;37.53;16.65;;;;;;;-0.66;85.09;95984.75;5059425;28;20098;-71
2021/01/07 01:49:03;;;;;;;36.38;15.95;;;;;;;-0.70;84.81;95979.09;5070940;28;20408;-72
2021/01/07 01:51:29;;;;;;;35.95;16.33;;;;;;;-0.66;84.84;95985.53;5070039;28;20044;-71
2021/01/07 01:53:55;;;;;;;34.95;15.70;;;;;;;-0.65;84.85;95987.16;5070941;28;20051;-71
2021/01/07 01:56:22;;;;;;;33.13;16.30;;;;;;;-0.74;85.29;95987.88;5069737;28;20043;-71
2021/01/07 01:58:49;;;;;;;34.90;17.00;;;;;;;-0.67;85.17;95991.16;5070703;28;20071;-71
2021/01/07 02:01:16;;;;;;;34.47;16.45;;;;;;;-0.58;85.03;95986.91;5069768;28;20060;-72
2021/01/07 02:03:43;;;;;;;33.38;15.73;;;;;;;-0.55;84.71;95981.88;5070499;28;20065;-71
2021/01/07 02:06:13;;;;;;;34.15;15.63;;;;;;;-0.50;84.62;95983.78;5070120;28;20053;-72
2021/01/07 02:08:41;;;;;;;36.65;16.52;;;;;;;-0.65;84.83;95979.13;5070212;28;20048;-71
2021/01/07 02:11:09;;;;;;;35.60;16.15;;;;;;;-0.58;85.07;95976.22;5070519;28;20055;-71
2021/01/07 02:13:35;;;;;;;35.25;16.25;;;;;;;-0.60;84.91;95971.13;5069821;28;20044;-71
2021/01/07 02:16:01;;;;;;;36.80;15.70;;;;;;;-0.69;85.26;95969.19;5070399;28;20059;-71
2021/01/07 02:18:28;;;;;;;33.33;15.30;;;;;;;-0.64;85.49;95977.25;5061445;28;20044;-71
2021/01/07 02:20:57;;;;;;;39.75;16.38;;;;;;;-0.58;85.16;95978.91;5070417;28;20415;-71
2021/01/07 02:23:23;;;;;;;33.17;14.80;;;;;;;-0.54;84.93;95971.97;5069747;28;20043;-71
2021/01/07 02:25:49;;;;;;;33.97;14.88;;;;;;;-0.58;85.09;95976.22;5070040;28;20488;-71
2021/01/07 02:28:15;;;;;;;34.60;16.15;;;;;;;-0.64;85.53;95974.56;5069667;28;20067;-71
2021/01/07 02:30:41;;;;;;;36.97;16.30;;;;;;;-0.60;85.46;95973.81;5069849;28;20515;-71
2021/01/07 02:33:07;;;;;;;33.90;16.23;;;;;;;-0.56;85.36;95969.56;5032859;28;20125;-71
2021/01/07 02:35:33;;;;;;;36.90;15.65;;;;;;;-0.60;85.57;95973.00;5028742;28;20564;-71
2021/01/07 02:38:00;;;;;;;42.40;17.92;;;;;;;-0.51;85.31;95976.81;5030374;28;20157;-71
2021/01/07 02:40:26;;;;;;;34.42;16.55;;;;;;;-0.58;85.24;95976.22;5029321;28;20046;-71
2021/01/07 02:42:52;;;;;;;37.30;16.45;;;;;;;-0.59;85.36;95964.72;5030547;28;20049;-71
2021/01/07 02:45:18;;;;;;;38.08;17.30;;;;;;;-0.62;85.33;95973.28;5029736;28;20049;-71
2021/01/07 02:47:44;;;;;;;41.72;17.55;;;;;;;-0.62;85.46;95970.59;5044497;28;20049;-71
2021/01/07 02:50:11;;;;;;;36.58;16.58;;;;;;;-0.63;85.74;95968.16;5031799;28;20382;-72
2021/01/07 02:52:37;;;;;;;34.80;16.65;;;;;;;-0.62;85.76;95964.44;5030071;28;20042;-71
2021/01/07 02:55:06;;;;;;;36.60;16.80;;;;;;;-0.58;85.66;95960.97;5029871;28;20068;-72
2021/01/07 02:57:32;;;;;;;34.40;15.02;;;;;;;-0.49;85.62;95961.31;5029692;28;20125;-71
2021/01/07 02:59:58;;;;;;;37.28;16.48;;;;;;;-0.45;85.21;95959.75;5030688;28;20428;-71
2021/01/07 03:02:24;;;;;;;35.88;15.68;;;;;;;-0.48;85.30;95964.78;5028957;28;20436;-71
2021/01/07 03:04:50;;;;;;;37.95;17.02;;;;;;;-0.65;85.56;95967.63;5030830;28;20056;-71
2021/01/07 03:07:16;;;;;;;38.58;15.98;;;;;;;-0.58;85.72;95960.19;5029026;28;20042;-71
2021/01/07 03:09:42;;;;;;;34.53;16.35;;;;;;;-0.62;85.76;95953.75;5030169;28;20049;-71
2021/01/07 03:12:17;;;;;;;39.90;16.88;;;;;;;-0.60;85.58;95963.13;5029556;28;20053;-71
2021/01/07 03:14:44;;;;;;;36.17;16.13;;;;;;;-0.55;85.53;95959.69;5029914;28;20041;-71
2021/01/07 03:17:10;;;;;;;36.50;16.23;;;;;;;-0.59;85.57;95963.91;5044974;28;20041;-72
2021/01/07 03:19:36;;;;;;;38.13;16.48;;;;;;;-0.58;85.48;95966.31;5049354;28;20049;-71
2021/01/07 03:22:03;;;;;;;38.90;17.52;;;;;;;-0.75;86.01;95960.31;5049771;28;20060;-72
2021/01/07 03:24:29;;;;;;;35.72;16.17;;;;;;;-0.69;85.89;95958.50;5049007;28;20045;-71
2021/01/07 03:26:55;;;;;;;36.58;16.45;;;;;;;-0.64;85.77;95969.22;5050298;28;20048;-71
2021/01/07 03:29:22;;;;;;;30.35;14.88;;;;;;;-0.53;85.51;95966.38;5048572;28;20412;-71
2021/01/07 03:31:48;;;;;;;36.78;16.05;;;;;;;-0.54;85.43;95963.97;5050262;28;20099;-71
2021/01/07 03:34:14;;;;;;;32.17;14.15;;;;;;;-0.51;85.48;95960.78;5048826;28;20048;-71
2021/01/07 03:36:40;;;;;;;35.22;15.95;;;;;;;-0.50;85.12;95970.41;5049618;28;20052;-71
2021/01/07 03:39:06;;;;;;;35.30;16.08;;;;;;;-0.59;85.30;95963.91;5049137;28;20045;-72
2021/01/07 03:41:32;;;;;;;36.75;17.40;;;;;;;-0.65;85.47;95964.94;5051388;28;20049;-71
2021/01/07 03:43:58;;;;;;;34.00;15.85;;;;;;;-0.67;85.70;95967.09;5053310;28;20523;-71
2021/01/07 03:46:25;;;;;;;33.55;15.27;;;;;;;-0.57;85.34;95964.50;5042588;28;20417;-71
2021/01/07 03:48:51;;;;;;;32.20;15.18;;;;;;;-0.48;84.98;95962.91;5033794;28;20044;-71
2021/01/07 03:51:17;;;;;;;31.52;14.10;;;;;;;-0.47;84.83;95972.59;5031854;28;20132;-71
2021/01/07 03:53:43;;;;;;;28.77;13.25;;;;;;;-0.42;84.62;95969.91;5033794;28;20463;-71
2021/01/07 03:56:09;;;;;;;33.38;14.80;;;;;;;-0.39;84.42;95969.41;5032044;28;20034;-71
2021/01/07 03:58:35;;;;;;;35.72;15.60;;;;;;;-0.39;84.20;95968.59;5033454;28;20038;-71
2021/01/07 04:01:01;;;;;;;31.15;14.70;;;;;;;-0.42;84.25;95972.59;5032404;28;20045;-71
2021/01/07 04:03:28;;;;;;;31.02;14.65;;;;;;;-0.29;84.12;95964.13;5032722;28;20038;-71
2021/01/07 04:05:54;;;;;;;27.50;13.43;;;;;;;-0.24;83.84;95965.22;5032802;28;20052;-71
2021/01/07 04:08:20;;;;;;;30.35;13.55;;;;;;;-0.16;83.57;95968.19;5031998;28;20042;-71
2021/01/07 04:10:46;;;;;;;30.23;13.50;;;;;;;-0.18;83.24;95967.66;5032956;28;20045;-71
2021/01/07 04:13:12;;;;;;;31.60;14.60;;;;;;;-0.33;83.53;95976.41;5031822;28;20049;-72
2021/01/07 04:15:38;;;;;;;29.88;14.30;;;;;;;-0.38;84.04;95976.38;5033562;28;20049;-71
2021/01/07 04:18:04;;;;;;;32.45;14.68;;;;;;;-0.34;84.07;95972.13;5031585;28;20049;-71
2021/01/07 04:20:31;;;;;;;30.80;14.45;;;;;;;-0.23;83.74;95977.53;5033259;28;20067;-71
2021/01/07 04:22:57;;;;;;;30.50;14.05;;;;;;;-0.18;83.68;95972.22;5031799;28;20049;-71
2021/01/07 04:25:23;;;;;;;31.15;13.88;;;;;;;-0.14;83.46;95976.00;5032205;28;20103;-71
2021/01/07 04:27:49;;;;;;;29.23;13.80;;;;;;;-0.08;83.36;95974.94;5032285;28;20057;-71
2021/01/07 04:30:16;;;;;;;30.15;13.98;;;;;;;-0.11;83.09;95975.44;5032075;28;20052;-71
2021/01/07 04:32:42;;;;;;;25.77;12.73;;;;;;;-0.05;82.87;95980.59;5032430;28;20045;-71
2021/01/07 04:35:08;;;;;;;26.00;13.23;;;;;;;-0.14;82.64;95984.03;5031461;28;20052;-72
2021/01/07 04:37:35;;;;;;;27.20;12.85;;;;;;;-0.13;82.73;95988.31;5032792;28;20136;-71
2021/01/07 04:40:01;;;;;;;27.70;12.77;;;;;;;-0.20;82.98;95982.38;5031220;28;20484;-72
2021/01/07 04:42:27;;;;;;;28.02;13.02;;;;;;;-0.07;82.76;95981.91;5032597;28;20045;-71
2021/01/07 04:44:54;;;;;;;28.83;12.50;;;;;;;-0.24;82.69;95982.09;5031542;28;20123;-71
2021/01/07 04:47:20;;;;;;;27.30;13.27;;;;;;;-0.27;82.85;95983.38;5032357;28;20050;-71
2021/01/07 04:49:47;;;;;;;26.70;12.85;;;;;;;-0.24;82.57;95983.97;5031676;28;20681;-71
2021/01/07 04:52:13;;;;;;;28.20;13.07;;;;;;;-0.20;82.74;95988.53;5031334;28;20056;-71
2021/01/07 04:54:40;;;;;;;27.95;12.73;;;;;;;-0.15;82.23;95991.25;5031860;28;20136;-71
2021/01/07 04:57:06;;;;;;;25.27;11.80;;;;;;;-0.23;82.13;95982.88;5031279;28;20046;-71
2021/01/07 04:59:32;;;;;;;22.35;11.05;;;;;;;-0.31;82.31;95993.03;5032225;28;20053;-72
2021/01/07 05:01:59;;;;;;;24.20;11.32;;;;;;;-0.27;81.97;95994.09;5031181;28;20049;-71
2021/01/07 05:04:25;;;;;;;23.52;11.63;;;;;;;-0.30;82.11;95994.63;5031898;28;20045;-71
2021/01/07 05:06:51;;;;;;;22.67;11.02;;;;;;;-0.22;81.95;95989.84;5031067;28;20179;-71
2021/01/07 05:09:17;;;;;;;22.55;12.30;;;;;;;-0.37;81.58;95987.88;5031913;28;20053;-72
2021/01/07 05:11:44;;;;;;;21.85;11.02;;;;;;;-0.43;82.12;95989.72;5031125;28;20056;-72
2021/01/07 05:14:10;;;;;;;21.17;11.45;;;;;;;-0.41;81.98;95987.59;5031493;28;20065;-72
2021/01/07 05:16:37;;;;;;;26.73;11.02;;;;;;;-0.42;82.14;95990.50;5041827;28;20053;-71
2021/01/07 05:19:05;;;;;;;20.23;9.77;;;;;;;-0.33;81.54;95989.78;5050844;28;20083;-72
2021/01/07 05:21:31;;;;;;;21.52;10.40;;;;;;;-0.38;81.52;95987.06;5051515;28;20053;-71
2021/01/07 05:23:58;;;;;;;21.40;10.90;;;;;;;-0.39;81.44;95995.34;5050935;28;20041;-71
2021/01/07 05:26:25;;;;;;;20.58;10.10;;;;;;;-0.40;81.50;95993.75;5051041;28;20511;-71
2021/01/07 05:28:53;;;;;;;21.17;10.32;;;;;;;-0.48;81.46;95994.22;5051740;28;20107;-71
2021/01/07 05:31:19;;;;;;;22.00;10.25;;;;;;;-0.44;81.42;95993.44;5051311;28;20052;-71
2021/01/07 05:33:45;;;;;;;17.35;9.85;;;;;;;-0.41;81.48;95984.94;5050574;28;20057;-71
2021/01/07 05:36:26;;;;;;;21.92;10.57;;;;;;;-0.45;81.49;95991.84;5050988;28;20049;-72
2021/01/07 05:38:54;;;;;;;22.02;10.95;;;;;;;-0.40;81.43;95989.22;5050784;28;20481;-71
2021/01/07 05:41:22;;;;;;;24.25;10.52;;;;;;;-0.50;81.65;95989.13;5050255;28;20049;-71
2021/01/07 05:43:59;;;;;;;23.08;11.23;;;;;;;-0.51;81.78;95990.19;5051100;28;20053;-71
2021/01/07 05:46:25;;;;;;;23.50;11.00;;;;;;;-0.45;81.79;95997.19;5048971;28;20044;-71
2021/01/07 05:48:53;;;;;;;22.55;11.57;;;;;;;-0.48;81.88;95997.69;5051481;28;20518;-71
2021/01/07 05:51:23;;;;;;;20.75;10.90;;;;;;;-0.53;81.94;95998.47;5049676;28;20049;-71
2021/01/07 05:53:50;;;;;;;20.35;10.68;;;;;;;-0.42;81.77;95999.34;5051248;28;20049;-71
2021/01/07 05:56:19;;;;;;;23.23;11.18;;;;;;;-0.31;81.56;95993.03;5049767;28;20041;-72
2021/01/07 05:58:47;;;;;;;21.60;10.57;;;;;;;-0.38;81.42;95997.78;5050843;28;20548;-71
2021/01/07 06:01:15;;;;;;;21.85;11.35;;;;;;;-0.24;81.21;95997.34;5050087;28;20041;-71
2021/01/07 06:03:46;;;;;;;21.70;10.65;;;;;;;-0.17;81.17;96004.06;5049924;28;20048;-70
2021/01/07 06:06:15;;;;;;;21.60;10.57;;;;;;;-0.19;80.94;96000.03;5050505;28;20095;-71
2021/01/07 06:08:48;;;;;;;22.67;10.75;;;;;;;-0.18;81.10;96007.81;5049782;28;20049;-71
2021/01/07 06:11:15;;;;;;;21.67;11.30;;;;;;;-0.15;80.99;95998.47;5050554;28;20510;-72
2021/01/07 06:13:43;;;;;;;23.10;10.63;;;;;;;-0.21;81.05;96002.97;5050083;28;20045;-71
2021/01/07 06:16:12;;;;;;;20.83;11.20;;;;;;;-0.20;81.16;96001.13;5049491;28;20095;-71
2021/01/07 06:18:39;;;;;;;21.17;11.15;;;;;;;-0.19;81.18;96013.44;5050088;28;20056;-71
2021/01/07 06:21:09;;;;;;;21.85;10.80;;;;;;;-0.20;80.68;96014.50;5050049;28;20052;-72
2021/01/07 06:23:43;;;;;;;25.27;11.27;;;;;;;-0.24;80.91;96002.69;5050327;28;20470;-71
2021/01/07 06:26:20;;;;;;;21.17;11.00;;;;;;;-0.13;80.97;96004.34;5049348;28;20056;-71
2021/01/07 06:28:50;;;;;;;22.60;10.90;;;;;;;-0.04;80.57;96008.16;5050495;28;20053;-72
2021/01/07 06:31:16;;;;;;;21.38;11.10;;;;;;;-0.18;80.33;96007.00;5049126;28;20048;-71
2021/01/07 06:33:44;;;;;;;24.27;11.90;;;;;;;-0.22;80.78;96005.91;5050657;28;20056;-71
2021/01/07 06:36:11;;;;;;;22.92;11.40;;;;;;;-0.25;80.83;96006.44;5049115;28;20056;-71
2021/01/07 06:38:49;;;;;;;23.25;11.05;;;;;;;-0.25;80.95;96007.22;5049578;28;20041;-71
2021/01/07 06:41:17;;;;;;;24.02;11.95;;;;;;;-0.31;80.79;96005.59;5049493;28;20052;-71
2021/01/07 06:43:44;;;;;;;23.52;11.63;;;;;;;-0.28;80.88;96003.19;5049835;28;20056;-72
2021/01/07 06:46:10;;;;;;;25.05;11.88;;;;;;;-0.27;80.89;96007.47;5048804;28;20040;-71
2021/01/07 06:48:41;;;;;;;24.23;12.10;;;;;;;-0.18;80.68;96013.16;5049578;28;20053;-71
2021/01/07 06:51:08;;;;;;;24.67;12.10;;;;;;;-0.23;80.48;96015.00;5050243;28;20129;-71
2021/01/07 06:53:36;;;;;;;25.55;12.55;;;;;;;-0.33;80.59;96010.38;5049550;28;20456;-71
2021/01/07 06:56:14;;;;;;;27.08;12.32;;;;;;;-0.35;80.65;96013.31;5050279;28;20049;-73
2021/01/07 06:58:42;;;;;;;22.23;11.88;;;;;;;-0.25;80.68;96011.78;5049599;28;20045;-71
2021/01/07 07:01:14;;;;;;;29.90;14.10;;;;;;;-0.37;80.69;96010.06;5049629;28;20053;-72
2021/01/07 07:03:48;;;;;;;27.10;12.13;;;;;;;-0.23;80.72;96018.47;5049968;28;20049;-71
2021/01/07 07:06:21;;;;;;;29.15;12.63;;;;;;;-0.15;80.25;96017.22;5048954;28;20044;-72
2021/01/07 07:08:48;;;;;;;26.27;13.13;;;;;;;-0.10;80.23;96018.03;5050486;28;20539;-71
2021/01/07 07:11:29;;;;;;;29.20;12.23;;;;;;;-0.05;80.04;96014.59;5048615;28;20048;-71
2021/01/07 07:13:58;;;;;;;26.48;12.15;;;;;;;-0.03;79.83;96023.16;5050408;28;20045;-71
2021/01/07 07:16:24;;;;;;;26.20;12.52;;;;;;;-0.14;79.67;96024.16;5050168;28;20044;-71
2021/01/07 07:18:55;;;;;;;27.00;12.95;;;;;;;-0.19;80.06;96026.81;5053817;28;20060;-71
2021/01/07 07:21:24;;;;;;;29.17;14.13;;;;;;;-0.15;80.03;96035.94;5053156;28;22927;-71
2021/01/07 07:23:51;;;;;;;26.20;13.23;;;;;;;-0.15;79.86;96035.94;5053212;28;20048;-71
2021/01/07 07:26:32;;;;;;;23.88;12.38;;;;;;;-0.06;79.68;96039.72;5053268;28;20045;-72
2021/01/07 07:29:03;;;;;;;25.73;12.40;;;;;;;-0.15;79.82;96041.28;5052901;28;20049;-71
2021/01/07 07:31:37;;;;;;;28.13;13.18;;;;;;;-0.27;80.39;96042.25;5073795;28;20036;-71
2021/01/07 07:34:03;;;;;;;28.95;12.95;;;;;;;-0.29;80.53;96044.41;5072632;28;20044;-72
2021/01/07 07:36:31;;;;;;;31.45;13.38;;;;;;;-0.24;80.68;96042.81;5073609;28;20045;-72
2021/01/07 07:38:57;;;;;;;30.17;14.43;;;;;;;-0.18;80.40;96044.47;5073378;28;20052;-71
2021/01/07 07:41:27;;;;;;;34.78;15.13;;;;;;;-0.22;80.46;96046.03;5072427;28;20098;-71
2021/01/07 07:43:54;;;;;;;31.05;14.90;;;;;;;-0.13;80.34;96052.53;5073569;28;20500;-71
2021/01/07 07:46:24;;;;;;;32.58;13.80;;;;;;;-0.15;80.31;96050.13;5071667;28;20044;-71
2021/01/07 07:48:57;;;;;;;30.50;14.10;;;;;;;-0.09;80.26;96056.31;5073822;28;20135;-72
2021/01/07 07:51:24;;;;;;;33.30;13.77;;;;;;;-0.07;80.26;96051.50;5072066;28;20504;-71
2021/01/07 07:54:02;;;;;;;31.10;14.38;;;;;;;-0.08;80.04;96055.25;5073475;28;20048;-71
2021/01/07 07:56:28;;;;;;;31.15;13.73;;;;;;;-0.13;80.11;96055.22;5072567;28;20048;-71
2021/01/07 07:58:58;;;;;;;31.30;14.32;;;;;;;-0.13;80.02;96049.84;5072955;28;20051;-71
2021/01/07 08:01:37;;;;;;;33.10;14.20;;;;;;;-0.07;80.37;96056.84;5072472;28;20040;-70
2021/01/07 08:04:03;;;;;;;33.15;15.18;;;;;;;0.04;80.23;96053.16;5072044;28;20419;-72
2021/01/07 08:06:29;;;;;;;32.47;14.25;;;;;;;-0.03;80.08;96055.28;5072847;28;20040;-74
2021/01/07 08:09:03;;;;;;;32.05;14.98;;;;;;;0.10;79.94;96062.84;5071720;28;20501;-73
2021/01/07 08:11:30;;;;;;;34.13;13.68;;;;;;;0.07;79.71;96057.22;5073150;28;20384;-73
2021/01/07 08:13:57;;;;;;;29.42;12.80;;;;;;;0.15;79.51;96060.19;5072235;28;20045;-73
2021/01/07 08:16:24;;;;;;;30.45;13.30;;;;;;;0.18;79.51;96059.69;5071699;28;20051;-73
2021/01/07 08:18:50;;;;;;;26.98;13.18;;;;;;;0.22;79.01;96060.78;5072154;28;20561;-74
2021/01/07 08:21:17;;;;;;;28.63;13.63;;;;;;;0.28;79.13;96064.31;5071977;28;20044;-73
2021/01/07 08:23:43;;;;;;;32.55;14.20;;;;;;;0.24;78.73;96063.19;5072632;28;20052;-73
2021/01/07 08:26:25;;;;;;;28.38;13.25;;;;;;;0.28;79.06;96064.31;5071001;28;20055;-73
2021/01/07 08:28:51;;;;;;;31.88;14.27;;;;;;;0.28;78.56;96066.97;5073121;28;20056;-73
2021/01/07 08:31:20;;;;;;;27.17;13.00;;;;;;;0.10;79.04;96067.38;5072582;28;20044;-73
2021/01/07 08:33:47;;;;;;;30.75;14.02;;;;;;;-0.01;79.47;96066.53;5072942;28;20060;-74
2021/01/07 08:36:14;;;;;;;29.73;12.77;;;;;;;0.17;79.43;96071.47;5067942;28;20404;-73
2021/01/07 08:38:41;;;;;;;31.52;13.30;;;;;;;0.27;79.15;96073.41;5072489;28;20052;-73
2021/01/07 08:41:11;;;;;;;26.92;12.68;;;;;;;0.02;79.66;96071.38;5071534;28;20059;-73
2021/01/07 08:43:37;;;;;;;29.10;13.38;;;;;;;0.10;79.77;96070.88;5071822;28;20510;-73
2021/01/07 08:46:14;;;;;;;30.52;14.27;;;;;;;0.17;79.35;96071.47;5071420;28;20071;-73
2021/01/07 08:48:40;;;;;;;32.38;13.85;;;;;;;0.30;79.13;96074.75;5071354;28;20049;-74
2021/01/07 08:51:19;;;;;;;29.00;13.20;;;;;;;0.28;78.56;96082.25;5072026;28;20067;-74
2021/01/07 08:53:49;;;;;;;28.70;13.38;;;;;;;0.34;78.65;96073.97;5071256;28;20041;-74
2021/01/07 08:56:33;;;;;;;32.88;14.52;;;;;;;0.42;78.58;96075.38;5071542;28;20051;-74
2021/01/07 08:59:17;;;;;;;;;;;;;;;0.43;78.07;96072.41;5072115;28;20048;-74
2021/01/07 09:01:43;;;;;;;29.67;13.65;;;;;;;0.45;77.74;96083.66;5071002;28;19920;-74
2021/01/07 09:04:26;;;;;;;33.38;13.38;;;;;;;0.60;77.84;96074.09;5071194;28;20205;-74
2021/01/07 09:06:57;;;;;;;32.50;15.00;;;;;;;0.64;77.22;96072.50;5071252;28;20045;-75
2021/01/07 09:09:23;;;;;;;33.55;13.27;;;;;;;0.59;77.24;96070.63;5071369;28;20118;-74
2021/01/07 09:11:50;;;;;;;32.50;13.35;;;;;;;0.58;77.13;96066.34;5070933;28;20052;-74
2021/01/07 09:14:16;;;;;;;29.92;13.38;;;;;;;0.50;77.50;96072.97;5070824;28;20557;-74
2021/01/07 09:16:58;;;;;;;30.52;14.10;;;;;;;0.64;77.59;96067.16;5070075;28;20443;-74
2021/01/07 09:19:24;;;;;;;28.85;13.13;;;;;;;0.61;76.77;96067.66;5069883;28;20045;-74
2021/01/07 09:21:59;;;;;;;27.90;13.07;;;;;;;0.65;76.95;96064.22;5071034;28;20056;-74
2021/01/07 09:24:25;;;;;;;27.95;13.20;;;;;;;0.56;76.65;96068.44;5069489;28;20036;-73
2021/01/07 09:26:52;;;;;;;32.17;13.63;;;;;;;0.53;76.96;96063.63;5071312;28;20396;-74
2021/01/07 09:29:18;;;;;;;29.52;13.82;;;;;;;0.63;76.71;96071.72;5068804;28;20059;-74
2021/01/07 09:31:44;;;;;;;29.63;14.10;;;;;;;0.59;76.91;96070.63;5051617;28;20076;-75
2021/01/07 09:34:10;;;;;;;27.55;13.32;;;;;;;0.67;76.50;96074.66;5050171;28;20041;-74
2021/01/07 09:36:36;;;;;;;26.77;13.57;;;;;;;0.58;76.90;96074.38;5049547;28;20625;-74
2021/01/07 09:39:04;;;;;;;29.40;13.40;;;;;;;0.51;76.70;96063.88;5049403;28;20567;-74
2021/01/07 09:41:30;;;;;;;27.25;13.80;;;;;;;0.56;76.63;96065.75;5050456;28;20132;-74
2021/01/07 09:43:56;;;;;;;31.85;14.73;;;;;;;0.42;76.81;96062.78;5051185;28;20049;-74
2021/01/07 09:46:22;;;;;;;29.05;14.10;;;;;;;0.44;77.13;96067.88;5058449;28;20495;-74
2021/01/07 09:48:48;;;;;;;28.38;13.90;;;;;;;0.46;77.37;96071.06;5071330;28;20139;-74
2021/01/07 09:51:14;;;;;;;28.65;13.77;;;;;;;0.61;77.19;96065.78;5069580;28;20076;-75
2021/01/07 09:53:41;;;;;;;27.88;13.52;;;;;;;0.57;76.83;96067.38;5071166;28;20068;-74
2021/01/07 09:56:07;;;;;;;30.45;13.48;;;;;;;0.53;76.79;96066.31;5069181;28;20044;-74
2021/01/07 09:58:33;;;;;;;28.17;14.80;;;;;;;0.58;76.78;96060.97;5070810;28;20124;-74
2021/01/07 10:01:00;;;;;;;28.55;13.50;;;;;;;0.63;76.87;96055.63;5069787;28;20045;-74
2021/01/07 10:03:26;;;;;;;30.58;14.30;;;;;;;0.74;76.53;96051.91;5070043;28;20067;-74
2021/01/07 10:05:52;;;;;;;31.33;14.23;;;;;;;0.72;76.75;96047.88;5070402;28;20577;-74
2021/01/07 10:08:18;;;;;;;29.73;14.55;;;;;;;0.86;75.88;96046.31;5069556;28;20079;-75
2021/01/07 10:10:44;;;;;;;31.85;13.95;;;;;;;0.95;75.92;96043.94;5070739;28;20048;-74
2021/01/07 10:13:10;;;;;;;35.63;13.90;;;;;;;0.96;75.67;96041.00;5069109;28;20056;-74
2021/01/07 10:15:36;;;;;;;28.48;14.48;;;;;;;0.94;75.31;96039.63;5070342;28;20148;-74
2021/01/07 10:18:03;;;;;;;28.08;14.27;;;;;;;0.96;74.91;96043.66;5069505;28;20082;-74
2021/01/07 10:20:29;;;;;;;28.52;14.60;;;;;;;0.80;75.26;96050.06;5070404;28;20569;-74
2021/01/07 10:22:56;;;;;;;27.85;14.10;;;;;;;0.89;75.85;96042.28;5069867;28;20127;-74
2021/01/07 10:25:22;;;;;;;28.23;13.27;;;;;;;0.89;75.31;96034.25;5069470;28;20052;-74
2021/01/07 10:27:49;;;;;;;30.23;14.82;;;;;;;0.83;75.73;96038.78;5070280;28;20052;-74
2021/01/07 10:30:17;;;;;;;28.13;13.60;;;;;;;0.89;75.83;96036.94;5069314;28;20055;-74
2021/01/07 10:32:43;;;;;;;32.55;15.30;;;;;;;0.85;75.65;96036.69;5070056;28;20581;-74
2021/01/07 10:35:11;;;;;;;26.80;13.75;;;;;;;0.86;75.69;96032.13;5067856;28;20049;-74
2021/01/07 10:37:37;;;;;;;31.60;15.20;;;;;;;0.92;75.80;96025.69;5070867;28;20507;-74
2021/01/07 10:40:05;;;;;;;31.45;14.35;;;;;;;0.96;75.56;96032.16;5068858;28;20052;-75
2021/01/07 10:42:32;;;;;;;30.70;14.80;;;;;;;0.90;75.89;96027.84;5070287;28;20040;-74
2021/01/07 10:44:59;;;;;;;31.80;15.05;;;;;;;0.93;75.94;96021.94;5069102;28;20542;-74
2021/01/07 10:47:28;;;;;;;33.38;16.02;;;;;;;0.88;76.20;96027.28;5067782;28;20052;-74
2021/01/07 10:49:57;;;;;;;30.60;14.40;;;;;;;0.94;76.03;96023.53;5070119;28;20048;-74
2021/01/07 10:52:54;;;;;;;31.55;14.55;;;;;;;1.05;75.97;96019.84;5073205;28;20400;-74
2021/01/07 10:55:24;;;;;;;28.05;13.55;;;;;;;1.16;76.10;96020.66;5074140;28;20048;-74
2021/01/07 10:58:11;;;;;;;34.03;15.85;;;;;;;1.20;75.63;96011.81;5073528;28;20048;-74
2021/01/07 11:00:48;;;;;;;30.17;15.35;;;;;;;1.20;75.87;96006.44;5074240;28;20535;-74
2021/01/07 11:03:30;;;;;;;30.52;15.02;;;;;;;1.32;75.90;96011.56;5073356;28;20048;-74
2021/01/07 11:06:01;;;;;;;32.20;15.00;;;;;;;1.46;75.84;96009.13;5073647;28;20040;-74
2021/01/07 11:08:33;;;;;;;34.78;15.00;;;;;;;1.58;75.87;96011.56;5074204;28;20044;-75
2021/01/07 11:11:07;;;;;;;30.60;15.23;;;;;;;1.65;75.21;96007.50;5072895;28;20055;-74
2021/01/07 11:13:38;;;;;;;31.15;14.98;;;;;;;1.76;75.18;96014.47;5074448;28;20062;-75
2021/01/07 11:16:08;;;;;;;29.25;14.23;;;;;;;1.70;74.48;95999.47;5066270;28;20044;-75
2021/01/07 11:18:36;;;;;;;27.65;13.25;;;;;;;1.70;74.76;96004.03;5053875;28;20059;-75
2021/01/07 11:21:04;;;;;;;31.20;14.23;;;;;;;1.66;74.53;96002.94;5053024;28;20566;-75
2021/01/07 11:23:31;;;;;;;32.95;14.25;;;;;;;1.71;74.91;96000.25;5053229;28;20132;-75